sensor_id;sensor_type;location;lat;lon;timestamp;temperature;humidity
16160;DHT22;8185;57.818;15.224;2023-05-14T00:00:30;11.30;90.50
16160;DHT22;8185;57.818;15.224;2023-05-14T00:02:57;11.20;90.60
16160;DHT22;8185;57.818;15.224;2023-05-14T00:05:24;11.30;90.60
16160;DHT22;8185;57.818;15.224;2023-05-14T00:07:51;11.20;90.80
16160;DHT22;8185;57.818;15.224;2023-05-14T00:10:18;11.10;91.10
16160;DHT22;8185;57.818;15.224;2023-05-14T00:12:46;11.10;91.80
16160;DHT22;8185;57.818;15.224;2023-05-14T00:15:13;11.10;92.60
16160;DHT22;8185;57.818;15.224;2023-05-14T00:17:42;11.00;92.00
16160;DHT22;8185;57.818;15.224;2023-05-14T00:20:10;11.10;93.00
16160;DHT22;8185;57.818;15.224;2023-05-14T00:22:39;10.90;92.80
16160;DHT22;8185;57.818;15.224;2023-05-14T00:25:07;10.90;93.60
16160;DHT22;8185;57.818;15.224;2023-05-14T00:27:35;10.80;93.80
16160;DHT22;8185;57.818;15.224;2023-05-14T00:30:04;10.70;93.90
16160;DHT22;8185;57.818;15.224;2023-05-14T00:32:32;10.70;93.80
16160;DHT22;8185;57.818;15.224;2023-05-14T00:35:00;10.70;93.50
16160;DHT22;8185;57.818;15.224;2023-05-14T00:37:29;10.70;93.60
16160;DHT22;8185;57.818;15.224;2023-05-14T00:39:56;10.60;93.80
16160;DHT22;8185;57.818;15.224;2023-05-14T00:42:23;10.60;93.70
16160;DHT22;8185;57.818;15.224;2023-05-14T00:44:52;10.50;93.50
16160;DHT22;8185;57.818;15.224;2023-05-14T00:47:19;10.50;93.50
16160;DHT22;8185;57.818;15.224;2023-05-14T00:49:46;10.50;93.40
16160;DHT22;8185;57.818;15.224;2023-05-14T00:52:15;10.50;93.30
16160;DHT22;8185;57.818;15.224;2023-05-14T00:54:44;10.50;93.40
16160;DHT22;8185;57.818;15.224;2023-05-14T00:57:12;10.50;93.60
16160;DHT22;8185;57.818;15.224;2023-05-14T00:59:40;10.50;93.50
16160;DHT22;8185;57.818;15.224;2023-05-14T01:02:07;10.50;93.30
16160;DHT22;8185;57.818;15.224;2023-05-14T01:04:34;10.60;93.40
16160;DHT22;8185;57.818;15.224;2023-05-14T01:07:10;10.50;93.40
16160;DHT22;8185;57.818;15.224;2023-05-14T01:09:45;10.30;93.60
16160;DHT22;8185;57.818;15.224;2023-05-14T01:12:20;10.30;94.00
16160;DHT22;8185;57.818;15.224;2023-05-14T01:14:55;10.20;94.00
16160;DHT22;8185;57.818;15.224;2023-05-14T01:17:27;10.10;94.30
16160;DHT22;8185;57.818;15.224;2023-05-14T01:19:55;10.10;94.30
16160;DHT22;8185;57.818;15.224;2023-05-14T01:22:25;10.00;94.50
16160;DHT22;8185;57.818;15.224;2023-05-14T01:24:52;10.00;94.60
16160;DHT22;8185;57.818;15.224;2023-05-14T01:27:24;9.90;94.50
16160;DHT22;8185;57.818;15.224;2023-05-14T01:30:05;9.80;94.90
16160;DHT22;8185;57.818;15.224;2023-05-14T01:32:35;9.60;94.80
16160;DHT22;8185;57.818;15.224;2023-05-14T01:35:06;9.50;95.30
16160;DHT22;8185;57.818;15.224;2023-05-14T01:37:35;9.40;95.50
16160;DHT22;8185;57.818;15.224;2023-05-14T01:40:05;9.40;97.90
16160;DHT22;8185;57.818;15.224;2023-05-14T01:42:32;9.20;97.70
16160;DHT22;8185;57.818;15.224;2023-05-14T01:45:00;9.00;97.50
16160;DHT22;8185;57.818;15.224;2023-05-14T01:47:27;9.00;97.60
16160;DHT22;8185;57.818;15.224;2023-05-14T01:49:54;8.90;97.70
16160;DHT22;8185;57.818;15.224;2023-05-14T01:52:21;8.90;97.80
16160;DHT22;8185;57.818;15.224;2023-05-14T01:54:50;8.90;98.10
16160;DHT22;8185;57.818;15.224;2023-05-14T01:57:17;8.90;97.80
16160;DHT22;8185;57.818;15.224;2023-05-14T01:59:44;9.00;98.30
16160;DHT22;8185;57.818;15.224;2023-05-14T02:02:12;9.00;98.40
16160;DHT22;8185;57.818;15.224;2023-05-14T02:04:39;8.90;97.70
16160;DHT22;8185;57.818;15.224;2023-05-14T02:07:06;8.90;98.70
16160;DHT22;8185;57.818;15.224;2023-05-14T02:09:33;8.90;98.40
16160;DHT22;8185;57.818;15.224;2023-05-14T02:12:02;8.80;98.20
16160;DHT22;8185;57.818;15.224;2023-05-14T02:14:29;8.70;98.20
16160;DHT22;8185;57.818;15.224;2023-05-14T02:16:56;8.70;98.30
16160;DHT22;8185;57.818;15.224;2023-05-14T02:19:23;8.70;98.30
16160;DHT22;8185;57.818;15.224;2023-05-14T02:21:51;8.70;98.40
16160;DHT22;8185;57.818;15.224;2023-05-14T02:24:18;8.60;98.10
16160;DHT22;8185;57.818;15.224;2023-05-14T02:26:45;8.50;98.80
16160;DHT22;8185;57.818;15.224;2023-05-14T02:29:13;8.50;99.00
16160;DHT22;8185;57.818;15.224;2023-05-14T02:31:41;8.50;99.10
16160;DHT22;8185;57.818;15.224;2023-05-14T02:34:08;8.40;99.30
16160;DHT22;8185;57.818;15.224;2023-05-14T02:36:35;8.40;99.90
16160;DHT22;8185;57.818;15.224;2023-05-14T02:39:02;8.40;99.90
16160;DHT22;8185;57.818;15.224;2023-05-14T02:41:30;8.30;99.90
16160;DHT22;8185;57.818;15.224;2023-05-14T02:43:57;8.20;99.90
16160;DHT22;8185;57.818;15.224;2023-05-14T02:46:26;8.10;99.90
16160;DHT22;8185;57.818;15.224;2023-05-14T02:48:53;8.00;99.90
16160;DHT22;8185;57.818;15.224;2023-05-14T02:51:20;8.00;99.90
16160;DHT22;8185;57.818;15.224;2023-05-14T02:53:47;7.90;99.90
16160;DHT22;8185;57.818;15.224;2023-05-14T02:56:15;7.90;99.90
16160;DHT22;8185;57.818;15.224;2023-05-14T02:58:42;7.80;99.90
16160;DHT22;8185;57.818;15.224;2023-05-14T03:01:09;7.80;99.90
16160;DHT22;8185;57.818;15.224;2023-05-14T03:03:39;7.80;99.90
16160;DHT22;8185;57.818;15.224;2023-05-14T03:06:06;7.80;99.90
16160;DHT22;8185;57.818;15.224;2023-05-14T03:08:34;7.70;99.90
16160;DHT22;8185;57.818;15.224;2023-05-14T03:11:01;7.60;99.90
16160;DHT22;8185;57.818;15.224;2023-05-14T03:13:28;7.60;99.90
16160;DHT22;8185;57.818;15.224;2023-05-14T03:15:55;7.50;99.90
16160;DHT22;8185;57.818;15.224;2023-05-14T03:18:22;7.40;99.90
16160;DHT22;8185;57.818;15.224;2023-05-14T03:20:51;7.40;99.90
16160;DHT22;8185;57.818;15.224;2023-05-14T03:23:18;7.40;99.90
16160;DHT22;8185;57.818;15.224;2023-05-14T03:25:45;7.40;99.90
16160;DHT22;8185;57.818;15.224;2023-05-14T03:28:13;7.40;99.90
16160;DHT22;8185;57.818;15.224;2023-05-14T03:30:40;7.40;99.90
16160;DHT22;8185;57.818;15.224;2023-05-14T03:33:07;7.50;99.90
16160;DHT22;8185;57.818;15.224;2023-05-14T03:35:34;7.50;99.90
16160;DHT22;8185;57.818;15.224;2023-05-14T03:38:03;7.50;99.90
16160;DHT22;8185;57.818;15.224;2023-05-14T03:40:30;7.50;99.90
16160;DHT22;8185;57.818;15.224;2023-05-14T03:42:57;7.50;99.90
16160;DHT22;8185;57.818;15.224;2023-05-14T03:45:25;7.60;99.90
16160;DHT22;8185;57.818;15.224;2023-05-14T03:47:53;7.70;99.90
16160;DHT22;8185;57.818;15.224;2023-05-14T03:50:20;7.60;99.90
16160;DHT22;8185;57.818;15.224;2023-05-14T03:52:50;7.60;99.90
16160;DHT22;8185;57.818;15.224;2023-05-14T03:55:19;7.70;99.90
16160;DHT22;8185;57.818;15.224;2023-05-14T03:57:47;7.70;99.90
16160;DHT22;8185;57.818;15.224;2023-05-14T04:00:15;7.80;99.90
16160;DHT22;8185;57.818;15.224;2023-05-14T04:02:42;7.90;99.90
16160;DHT22;8185;57.818;15.224;2023-05-14T04:05:09;8.00;99.90
16160;DHT22;8185;57.818;15.224;2023-05-14T04:07:36;8.00;99.90
16160;DHT22;8185;57.818;15.224;2023-05-14T04:10:04;8.00;99.90
16160;DHT22;8185;57.818;15.224;2023-05-14T04:12:33;8.10;99.90
16160;DHT22;8185;57.818;15.224;2023-05-14T04:15:00;8.20;99.90
16160;DHT22;8185;57.818;15.224;2023-05-14T04:17:27;8.30;99.90
16160;DHT22;8185;57.818;15.224;2023-05-14T04:19:55;8.50;99.90
16160;DHT22;8185;57.818;15.224;2023-05-14T04:22:22;8.70;99.90
16160;DHT22;8185;57.818;15.224;2023-05-14T04:24:49;8.80;99.90
16160;DHT22;8185;57.818;15.224;2023-05-14T04:27:19;9.00;99.90
16160;DHT22;8185;57.818;15.224;2023-05-14T04:29:49;9.10;99.90
16160;DHT22;8185;57.818;15.224;2023-05-14T04:32:16;9.30;99.90
16160;DHT22;8185;57.818;15.224;2023-05-14T04:34:43;9.40;99.90
16160;DHT22;8185;57.818;15.224;2023-05-14T04:37:11;9.50;99.90
16160;DHT22;8185;57.818;15.224;2023-05-14T04:39:38;9.60;99.90
16160;DHT22;8185;57.818;15.224;2023-05-14T04:42:06;9.70;99.90
16160;DHT22;8185;57.818;15.224;2023-05-14T04:44:33;9.90;99.90
16160;DHT22;8185;57.818;15.224;2023-05-14T04:47:02;10.00;99.90
16160;DHT22;8185;57.818;15.224;2023-05-14T04:49:30;10.10;99.90
16160;DHT22;8185;57.818;15.224;2023-05-14T04:51:58;10.20;99.90
16160;DHT22;8185;57.818;15.224;2023-05-14T04:54:25;10.30;99.90
16160;DHT22;8185;57.818;15.224;2023-05-14T04:56:52;10.40;99.90
16160;DHT22;8185;57.818;15.224;2023-05-14T04:59:20;10.40;99.90
16160;DHT22;8185;57.818;15.224;2023-05-14T05:01:47;10.50;99.90
16160;DHT22;8185;57.818;15.224;2023-05-14T05:04:16;10.60;99.90
16160;DHT22;8185;57.818;15.224;2023-05-14T05:06:43;10.80;99.90
16160;DHT22;8185;57.818;15.224;2023-05-14T05:09:10;11.00;99.90
16160;DHT22;8185;57.818;15.224;2023-05-14T05:11:38;11.10;99.90
16160;DHT22;8185;57.818;15.224;2023-05-14T05:14:05;11.30;99.90
16160;DHT22;8185;57.818;15.224;2023-05-14T05:16:32;11.40;99.90
16160;DHT22;8185;57.818;15.224;2023-05-14T05:18:59;11.40;99.90
16160;DHT22;8185;57.818;15.224;2023-05-14T05:21:28;11.60;99.90
16160;DHT22;8185;57.818;15.224;2023-05-14T05:23:55;11.80;99.90
16160;DHT22;8185;57.818;15.224;2023-05-14T05:26:23;11.90;99.90
16160;DHT22;8185;57.818;15.224;2023-05-14T05:28:51;12.00;99.90
16160;DHT22;8185;57.818;15.224;2023-05-14T05:31:18;12.20;99.90
16160;DHT22;8185;57.818;15.224;2023-05-14T05:33:47;12.40;99.90
16160;DHT22;8185;57.818;15.224;2023-05-14T05:36:14;12.50;99.90
16160;DHT22;8185;57.818;15.224;2023-05-14T05:38:42;12.70;99.90
16160;DHT22;8185;57.818;15.224;2023-05-14T05:41:10;13.00;99.90
16160;DHT22;8185;57.818;15.224;2023-05-14T05:43:37;13.10;99.90
16160;DHT22;8185;57.818;15.224;2023-05-14T05:46:04;13.30;99.90
16160;DHT22;8185;57.818;15.224;2023-05-14T05:48:31;13.50;99.90
16160;DHT22;8185;57.818;15.224;2023-05-14T05:50:58;13.60;99.90
16160;DHT22;8185;57.818;15.224;2023-05-14T05:53:26;13.80;99.90
16160;DHT22;8185;57.818;15.224;2023-05-14T05:55:54;14.00;99.90
16160;DHT22;8185;57.818;15.224;2023-05-14T05:58:21;14.20;99.90
16160;DHT22;8185;57.818;15.224;2023-05-14T06:00:49;14.40;99.90
16160;DHT22;8185;57.818;15.224;2023-05-14T06:03:16;14.60;99.90
16160;DHT22;8185;57.818;15.224;2023-05-14T06:05:43;14.70;99.90
16160;DHT22;8185;57.818;15.224;2023-05-14T06:08:11;14.90;99.90
16160;DHT22;8185;57.818;15.224;2023-05-14T06:10:38;15.10;99.90
16160;DHT22;8185;57.818;15.224;2023-05-14T06:13:07;15.20;99.90
16160;DHT22;8185;57.818;15.224;2023-05-14T06:15:34;15.40;99.90
16160;DHT22;8185;57.818;15.224;2023-05-14T06:18:01;15.60;99.90
16160;DHT22;8185;57.818;15.224;2023-05-14T06:20:28;15.70;99.90
16160;DHT22;8185;57.818;15.224;2023-05-14T06:22:56;15.80;99.90
16160;DHT22;8185;57.818;15.224;2023-05-14T06:25:23;16.10;99.90
16160;DHT22;8185;57.818;15.224;2023-05-14T06:27:50;16.20;99.90
16160;DHT22;8185;57.818;15.224;2023-05-14T06:30:19;16.30;99.90
16160;DHT22;8185;57.818;15.224;2023-05-14T06:32:46;16.40;99.90
16160;DHT22;8185;57.818;15.224;2023-05-14T06:35:13;16.40;99.90
16160;DHT22;8185;57.818;15.224;2023-05-14T06:37:41;16.50;99.90
16160;DHT22;8185;57.818;15.224;2023-05-14T06:40:08;16.60;99.90
16160;DHT22;8185;57.818;15.224;2023-05-14T06:42:36;16.70;99.90
16160;DHT22;8185;57.818;15.224;2023-05-14T06:45:05;16.90;99.90
16160;DHT22;8185;57.818;15.224;2023-05-14T06:47:33;17.10;99.90
16160;DHT22;8185;57.818;15.224;2023-05-14T06:50:01;17.20;98.00
16160;DHT22;8185;57.818;15.224;2023-05-14T06:52:28;17.50;99.90
16160;DHT22;8185;57.818;15.224;2023-05-14T06:54:55;17.60;99.90
16160;DHT22;8185;57.818;15.224;2023-05-14T06:57:22;17.80;97.30
16160;DHT22;8185;57.818;15.224;2023-05-14T06:59:49;18.10;92.10
16160;DHT22;8185;57.818;15.224;2023-05-14T07:02:17;18.20;92.80
16160;DHT22;8185;57.818;15.224;2023-05-14T07:04:45;18.30;88.50
16160;DHT22;8185;57.818;15.224;2023-05-14T07:07:12;18.50;87.40
16160;DHT22;8185;57.818;15.224;2023-05-14T07:09:42;18.50;86.00
16160;DHT22;8185;57.818;15.224;2023-05-14T07:12:10;18.50;88.00
16160;DHT22;8185;57.818;15.224;2023-05-14T07:14:37;18.70;75.70
16160;DHT22;8185;57.818;15.224;2023-05-14T07:17:04;18.80;75.00
16160;DHT22;8185;57.818;15.224;2023-05-14T07:19:32;18.80;75.50
16160;DHT22;8185;57.818;15.224;2023-05-14T07:22:00;19.00;75.40
16160;DHT22;8185;57.818;15.224;2023-05-14T07:24:28;19.10;76.60
16160;DHT22;8185;57.818;15.224;2023-05-14T07:26:55;19.20;81.70
16160;DHT22;8185;57.818;15.224;2023-05-14T07:29:23;19.40;76.00
16160;DHT22;8185;57.818;15.224;2023-05-14T07:31:50;19.30;74.40
16160;DHT22;8185;57.818;15.224;2023-05-14T07:34:18;19.40;76.40
16160;DHT22;8185;57.818;15.224;2023-05-14T07:36:45;19.50;74.10
16160;DHT22;8185;57.818;15.224;2023-05-14T07:39:14;19.60;75.20
16160;DHT22;8185;57.818;15.224;2023-05-14T07:41:41;19.70;79.50
16160;DHT22;8185;57.818;15.224;2023-05-14T07:44:09;19.80;75.80
16160;DHT22;8185;57.818;15.224;2023-05-14T07:46:36;19.70;70.90
16160;DHT22;8185;57.818;15.224;2023-05-14T07:49:03;19.80;76.20
16160;DHT22;8185;57.818;15.224;2023-05-14T07:51:30;19.80;68.80
16160;DHT22;8185;57.818;15.224;2023-05-14T07:53:58;19.90;70.90
16160;DHT22;8185;57.818;15.224;2023-05-14T07:56:27;19.90;71.90
16160;DHT22;8185;57.818;15.224;2023-05-14T07:58:54;20.10;71.40
16160;DHT22;8185;57.818;15.224;2023-05-14T08:01:21;19.80;70.10
16160;DHT22;8185;57.818;15.224;2023-05-14T08:03:48;20.10;75.20
16160;DHT22;8185;57.818;15.224;2023-05-14T08:06:15;20.50;68.80
16160;DHT22;8185;57.818;15.224;2023-05-14T08:08:42;20.30;68.70
16160;DHT22;8185;57.818;15.224;2023-05-14T08:11:10;20.30;66.30
16160;DHT22;8185;57.818;15.224;2023-05-14T08:13:38;20.30;69.70
16160;DHT22;8185;57.818;15.224;2023-05-14T08:16:06;20.40;67.90
16160;DHT22;8185;57.818;15.224;2023-05-14T08:18:33;20.60;71.10
16160;DHT22;8185;57.818;15.224;2023-05-14T08:21:01;20.70;71.20
16160;DHT22;8185;57.818;15.224;2023-05-14T08:23:28;20.90;66.40
16160;DHT22;8185;57.818;15.224;2023-05-14T08:25:55;20.80;67.90
16160;DHT22;8185;57.818;15.224;2023-05-14T08:28:22;20.70;67.10
16160;DHT22;8185;57.818;15.224;2023-05-14T08:30:52;20.80;67.30
16160;DHT22;8185;57.818;15.224;2023-05-14T08:33:19;20.90;66.60
16160;DHT22;8185;57.818;15.224;2023-05-14T08:35:46;20.90;69.00
16160;DHT22;8185;57.818;15.224;2023-05-14T08:38:13;20.60;63.90
16160;DHT22;8185;57.818;15.224;2023-05-14T08:40:41;21.10;67.00
16160;DHT22;8185;57.818;15.224;2023-05-14T08:43:10;21.20;68.60
16160;DHT22;8185;57.818;15.224;2023-05-14T08:45:39;21.30;68.60
16160;DHT22;8185;57.818;15.224;2023-05-14T08:48:10;21.60;71.30
16160;DHT22;8185;57.818;15.224;2023-05-14T08:50:39;21.70;66.60
16160;DHT22;8185;57.818;15.224;2023-05-14T08:53:06;21.70;65.40
16160;DHT22;8185;57.818;15.224;2023-05-14T08:55:34;21.60;67.00
16160;DHT22;8185;57.818;15.224;2023-05-14T08:58:02;21.80;69.90
16160;DHT22;8185;57.818;15.224;2023-05-14T09:00:30;22.10;66.60
16160;DHT22;8185;57.818;15.224;2023-05-14T09:02:58;22.20;64.50
16160;DHT22;8185;57.818;15.224;2023-05-14T09:05:27;22.10;64.00
16160;DHT22;8185;57.818;15.224;2023-05-14T09:07:54;21.90;62.80
16160;DHT22;8185;57.818;15.224;2023-05-14T09:10:21;21.80;61.90
16160;DHT22;8185;57.818;15.224;2023-05-14T09:12:49;22.00;64.00
16160;DHT22;8185;57.818;15.224;2023-05-14T09:15:16;22.10;64.20
16160;DHT22;8185;57.818;15.224;2023-05-14T09:17:43;22.40;64.80
16160;DHT22;8185;57.818;15.224;2023-05-14T09:20:14;22.30;60.80
16160;DHT22;8185;57.818;15.224;2023-05-14T09:22:43;22.30;61.50
16160;DHT22;8185;57.818;15.224;2023-05-14T09:25:10;22.90;66.80
16160;DHT22;8185;57.818;15.224;2023-05-14T09:27:38;23.10;63.80
16160;DHT22;8185;57.818;15.224;2023-05-14T09:30:07;22.50;59.20
16160;DHT22;8185;57.818;15.224;2023-05-14T09:32:36;22.50;56.00
16160;DHT22;8185;57.818;15.224;2023-05-14T09:35:13;22.40;55.70
16160;DHT22;8185;57.818;15.224;2023-05-14T09:37:44;22.30;57.70
16160;DHT22;8185;57.818;15.224;2023-05-14T09:40:13;22.60;59.20
16160;DHT22;8185;57.818;15.224;2023-05-14T09:42:40;23.10;63.80
16160;DHT22;8185;57.818;15.224;2023-05-14T09:45:08;23.50;59.00
16160;DHT22;8185;57.818;15.224;2023-05-14T09:47:36;23.50;57.60
16160;DHT22;8185;57.818;15.224;2023-05-14T09:50:05;23.40;56.90
16160;DHT22;8185;57.818;15.224;2023-05-14T09:52:32;23.20;56.60
16160;DHT22;8185;57.818;15.224;2023-05-14T09:55:01;23.40;56.60
16160;DHT22;8185;57.818;15.224;2023-05-14T09:57:29;23.20;55.90
16160;DHT22;8185;57.818;15.224;2023-05-14T09:59:56;22.80;55.30
16160;DHT22;8185;57.818;15.224;2023-05-14T10:02:24;23.00;58.70
16160;DHT22;8185;57.818;15.224;2023-05-14T10:04:53;23.60;56.40
16160;DHT22;8185;57.818;15.224;2023-05-14T10:07:30;23.30;53.20
16160;DHT22;8185;57.818;15.224;2023-05-14T10:10:03;23.70;58.20
16160;DHT22;8185;57.818;15.224;2023-05-14T10:12:37;24.10;57.80
16160;DHT22;8185;57.818;15.224;2023-05-14T10:15:11;24.30;57.50
16160;DHT22;8185;57.818;15.224;2023-05-14T10:17:40;24.40;55.10
16160;DHT22;8185;57.818;15.224;2023-05-14T10:20:13;24.20;55.20
16160;DHT22;8185;57.818;15.224;2023-05-14T10:22:41;23.90;56.60
16160;DHT22;8185;57.818;15.224;2023-05-14T10:25:10;24.00;55.00
16160;DHT22;8185;57.818;15.224;2023-05-14T10:27:38;24.50;54.50
16160;DHT22;8185;57.818;15.224;2023-05-14T10:30:10;24.90;55.10
16160;DHT22;8185;57.818;15.224;2023-05-14T10:32:39;25.40;55.70
16160;DHT22;8185;57.818;15.224;2023-05-14T10:35:16;25.90;55.10
16160;DHT22;8185;57.818;15.224;2023-05-14T10:37:45;25.60;52.10
16160;DHT22;8185;57.818;15.224;2023-05-14T10:40:14;25.80;51.40
16160;DHT22;8185;57.818;15.224;2023-05-14T10:42:42;25.90;52.50
16160;DHT22;8185;57.818;15.224;2023-05-14T10:45:12;26.50;52.10
16160;DHT22;8185;57.818;15.224;2023-05-14T10:47:42;26.40;50.70
16160;DHT22;8185;57.818;15.224;2023-05-14T10:50:12;26.30;51.90
16160;DHT22;8185;57.818;15.224;2023-05-14T10:52:41;26.60;49.00
16160;DHT22;8185;57.818;15.224;2023-05-14T10:55:14;27.40;54.00
16160;DHT22;8185;57.818;15.224;2023-05-14T10:57:43;28.10;51.30
16160;DHT22;8185;57.818;15.224;2023-05-14T11:00:12;28.00;48.20
16160;DHT22;8185;57.818;15.224;2023-05-14T11:02:40;26.20;50.30
16160;DHT22;8185;57.818;15.224;2023-05-14T11:05:09;25.00;50.30
16160;DHT22;8185;57.818;15.224;2023-05-14T11:07:40;24.90;53.00
16160;DHT22;8185;57.818;15.224;2023-05-14T11:10:09;24.10;51.70
16160;DHT22;8185;57.818;15.224;2023-05-14T11:12:39;23.60;52.70
16160;DHT22;8185;57.818;15.224;2023-05-14T11:15:08;24.80;53.70
16160;DHT22;8185;57.818;15.224;2023-05-14T11:17:36;25.90;53.40
16160;DHT22;8185;57.818;15.224;2023-05-14T11:20:04;27.00;52.60
16160;DHT22;8185;57.818;15.224;2023-05-14T11:22:33;27.70;51.90
16160;DHT22;8185;57.818;15.224;2023-05-14T11:25:00;26.70;50.00
16160;DHT22;8185;57.818;15.224;2023-05-14T11:27:28;26.80;49.70
16160;DHT22;8185;57.818;15.224;2023-05-14T11:29:57;28.30;48.80
16160;DHT22;8185;57.818;15.224;2023-05-14T11:32:25;27.10;49.10
16160;DHT22;8185;57.818;15.224;2023-05-14T11:34:53;25.70;48.70
16160;DHT22;8185;57.818;15.224;2023-05-14T11:37:20;24.60;50.80
16160;DHT22;8185;57.818;15.224;2023-05-14T11:39:48;26.00;53.10
16160;DHT22;8185;57.818;15.224;2023-05-14T11:42:17;26.90;49.70
16160;DHT22;8185;57.818;15.224;2023-05-14T11:44:46;27.70;49.80
16160;DHT22;8185;57.818;15.224;2023-05-14T11:47:17;28.30;49.60
16160;DHT22;8185;57.818;15.224;2023-05-14T11:49:44;28.50;50.90
16160;DHT22;8185;57.818;15.224;2023-05-14T11:52:12;29.60;48.60
16160;DHT22;8185;57.818;15.224;2023-05-14T11:54:41;29.00;48.30
16160;DHT22;8185;57.818;15.224;2023-05-14T11:57:09;28.80;47.00
16160;DHT22;8185;57.818;15.224;2023-05-14T11:59:37;29.30;46.20
16160;DHT22;8185;57.818;15.224;2023-05-14T12:02:09;28.80;45.80
16160;DHT22;8185;57.818;15.224;2023-05-14T12:04:38;28.70;46.90
16160;DHT22;8185;57.818;15.224;2023-05-14T12:07:10;28.60;47.40
16160;DHT22;8185;57.818;15.224;2023-05-14T12:09:39;26.70;45.70
16160;DHT22;8185;57.818;15.224;2023-05-14T12:12:08;25.90;46.30
16160;DHT22;8185;57.818;15.224;2023-05-14T12:14:38;25.10;47.00
16160;DHT22;8185;57.818;15.224;2023-05-14T12:17:14;25.60;46.60
16160;DHT22;8185;57.818;15.224;2023-05-14T12:19:44;26.10;50.90
16160;DHT22;8185;57.818;15.224;2023-05-14T12:22:14;25.20;45.70
16160;DHT22;8185;57.818;15.224;2023-05-14T12:24:42;24.60;50.50
16160;DHT22;8185;57.818;15.224;2023-05-14T12:27:10;23.90;50.00
16160;DHT22;8185;57.818;15.224;2023-05-14T12:29:38;25.00;48.60
16160;DHT22;8185;57.818;15.224;2023-05-14T12:32:09;26.20;49.40
16160;DHT22;8185;57.818;15.224;2023-05-14T12:34:37;27.10;51.30
16160;DHT22;8185;57.818;15.224;2023-05-14T12:37:06;26.20;49.10
16160;DHT22;8185;57.818;15.224;2023-05-14T12:39:34;25.30;48.50
16160;DHT22;8185;57.818;15.224;2023-05-14T12:42:01;24.60;49.40
16160;DHT22;8185;57.818;15.224;2023-05-14T12:44:28;24.80;50.10
16160;DHT22;8185;57.818;15.224;2023-05-14T12:46:56;25.40;50.40
16160;DHT22;8185;57.818;15.224;2023-05-14T12:49:23;26.70;50.60
16160;DHT22;8185;57.818;15.224;2023-05-14T12:51:50;27.60;48.20
16160;DHT22;8185;57.818;15.224;2023-05-14T12:54:19;28.00;47.30
16160;DHT22;8185;57.818;15.224;2023-05-14T12:56:46;28.10;46.50
16160;DHT22;8185;57.818;15.224;2023-05-14T12:59:13;28.50;49.40
16160;DHT22;8185;57.818;15.224;2023-05-14T13:01:41;28.70;49.00
16160;DHT22;8185;57.818;15.224;2023-05-14T13:04:09;29.50;47.30
16160;DHT22;8185;57.818;15.224;2023-05-14T13:06:37;29.80;46.10
16160;DHT22;8185;57.818;15.224;2023-05-14T13:09:04;29.60;44.40
16160;DHT22;8185;57.818;15.224;2023-05-14T13:11:33;29.20;42.90
16160;DHT22;8185;57.818;15.224;2023-05-14T13:14:01;29.00;44.00
16160;DHT22;8185;57.818;15.224;2023-05-14T13:16:28;29.20;44.60
16160;DHT22;8185;57.818;15.224;2023-05-14T13:18:56;29.30;42.60
16160;DHT22;8185;57.818;15.224;2023-05-14T13:21:23;29.40;45.30
16160;DHT22;8185;57.818;15.224;2023-05-14T13:23:50;28.60;43.80
16160;DHT22;8185;57.818;15.224;2023-05-14T13:26:18;28.70;44.90
16160;DHT22;8185;57.818;15.224;2023-05-14T13:28:46;29.60;45.00
16160;DHT22;8185;57.818;15.224;2023-05-14T13:31:13;30.20;45.10
16160;DHT22;8185;57.818;15.224;2023-05-14T13:33:42;30.50;43.10
16160;DHT22;8185;57.818;15.224;2023-05-14T13:36:10;30.20;42.30
16160;DHT22;8185;57.818;15.224;2023-05-14T13:38:37;30.80;44.40
16160;DHT22;8185;57.818;15.224;2023-05-14T13:41:05;31.80;44.90
16160;DHT22;8185;57.818;15.224;2023-05-14T13:43:33;31.30;42.70
16160;DHT22;8185;57.818;15.224;2023-05-14T13:46:03;30.20;41.60
16160;DHT22;8185;57.818;15.224;2023-05-14T13:48:31;30.10;42.50
16160;DHT22;8185;57.818;15.224;2023-05-14T13:50:58;30.30;45.00
16160;DHT22;8185;57.818;15.224;2023-05-14T13:53:25;31.50;43.80
16160;DHT22;8185;57.818;15.224;2023-05-14T13:55:52;31.70;43.60
16160;DHT22;8185;57.818;15.224;2023-05-14T13:58:23;32.20;40.60
16160;DHT22;8185;57.818;15.224;2023-05-14T14:00:50;31.70;41.60
16160;DHT22;8185;57.818;15.224;2023-05-14T14:03:19;30.10;42.10
16160;DHT22;8185;57.818;15.224;2023-05-14T14:05:46;28.00;42.00
16160;DHT22;8185;57.818;15.224;2023-05-14T14:08:13;26.70;44.40
16160;DHT22;8185;57.818;15.224;2023-05-14T14:10:40;28.80;45.10
16160;DHT22;8185;57.818;15.224;2023-05-14T14:13:08;30.10;46.20
16160;DHT22;8185;57.818;15.224;2023-05-14T14:15:35;30.60;42.90
16160;DHT22;8185;57.818;15.224;2023-05-14T14:18:03;31.60;42.90
16160;DHT22;8185;57.818;15.224;2023-05-14T14:20:31;31.20;42.00
16160;DHT22;8185;57.818;15.224;2023-05-14T14:22:59;31.00;42.80
16160;DHT22;8185;57.818;15.224;2023-05-14T14:25:26;31.30;43.00
16160;DHT22;8185;57.818;15.224;2023-05-14T14:27:53;30.70;43.10
16160;DHT22;8185;57.818;15.224;2023-05-14T14:30:21;31.50;43.00
16160;DHT22;8185;57.818;15.224;2023-05-14T14:32:48;31.50;42.30
16160;DHT22;8185;57.818;15.224;2023-05-14T14:35:16;31.60;41.70
16160;DHT22;8185;57.818;15.224;2023-05-14T14:37:45;32.00;43.00
16160;DHT22;8185;57.818;15.224;2023-05-14T14:40:17;31.70;41.60
16160;DHT22;8185;57.818;15.224;2023-05-14T14:42:44;32.00;42.20
16160;DHT22;8185;57.818;15.224;2023-05-14T14:45:11;31.60;42.30
16160;DHT22;8185;57.818;15.224;2023-05-14T14:47:43;31.60;42.30
16160;DHT22;8185;57.818;15.224;2023-05-14T14:50:10;31.70;43.20
16160;DHT22;8185;57.818;15.224;2023-05-14T14:52:39;32.10;41.90
16160;DHT22;8185;57.818;15.224;2023-05-14T14:55:10;32.30;42.50
16160;DHT22;8185;57.818;15.224;2023-05-14T14:57:37;31.30;41.20
16160;DHT22;8185;57.818;15.224;2023-05-14T15:00:05;30.60;42.00
16160;DHT22;8185;57.818;15.224;2023-05-14T15:02:34;31.40;43.30
16160;DHT22;8185;57.818;15.224;2023-05-14T15:05:04;31.50;43.80
16160;DHT22;8185;57.818;15.224;2023-05-14T15:07:31;31.90;42.90
16160;DHT22;8185;57.818;15.224;2023-05-14T15:09:58;31.70;42.80
16160;DHT22;8185;57.818;15.224;2023-05-14T15:12:27;31.80;44.20
16160;DHT22;8185;57.818;15.224;2023-05-14T15:14:54;31.40;42.40
16160;DHT22;8185;57.818;15.224;2023-05-14T15:17:21;31.60;43.50
16160;DHT22;8185;57.818;15.224;2023-05-14T15:19:49;28.70;42.80
16160;DHT22;8185;57.818;15.224;2023-05-14T15:22:16;26.90;45.50
16160;DHT22;8185;57.818;15.224;2023-05-14T15:24:43;25.70;47.00
16160;DHT22;8185;57.818;15.224;2023-05-14T15:27:10;26.60;47.50
16160;DHT22;8185;57.818;15.224;2023-05-14T15:29:39;28.80;46.40
16160;DHT22;8185;57.818;15.224;2023-05-14T15:32:07;30.70;46.50
16160;DHT22;8185;57.818;15.224;2023-05-14T15:34:34;30.50;44.30
16160;DHT22;8185;57.818;15.224;2023-05-14T15:37:02;30.40;44.30
16160;DHT22;8185;57.818;15.224;2023-05-14T15:39:29;30.50;43.40